Time;durP1;ratioP1;P1;durP2;ratioP2;P2;SDS_P1;SDS_P2;PMS_P1;PMS_P2;Temp;Humidity;BMP_temperature;BMP_pressure;BME280_temperature;BME280_humidity;BME280_pressure;Samples;Min_cycle;Max_cycle;Signal;HPM_P1;HPM_P2
2022/05/30 00:01:46;;;;;;;3.00;1.00;;;8.90;66.60;;;;;;5003338;28;20121;-74
2022/05/30 00:04:12;;;;;;;3.75;1.08;;;8.80;66.60;;;;;;5002547;28;20046;-74
2022/05/30 00:06:38;;;;;;;2.50;0.80;;;8.80;66.70;;;;;;5003713;28;20061;-73
2022/05/30 00:09:03;;;;;;;1.08;0.95;;;8.80;66.80;;;;;;5001953;28;20053;-73
2022/05/30 00:11:29;;;;;;;2.78;0.80;;;8.80;66.80;;;;;;4971497;28;20483;-75
2022/05/30 00:13:54;;;;;;;1.65;1.30;;;8.80;66.90;;;;;;4995250;28;20045;-74
2022/05/30 00:16:22;;;;;;;1.25;0.90;;;8.80;66.80;;;;;;4971796;28;20050;-74
2022/05/30 00:18:47;;;;;;;1.10;0.88;;;8.80;66.90;;;;;;4976313;28;20042;-75
2022/05/30 00:21:16;;;;;;;1.60;1.50;;;8.80;66.90;;;;;;4960493;28;20050;-73
2022/05/30 00:23:42;;;;;;;1.10;1.00;;;8.80;66.90;;;;;;4986778;28;20033;-74
2022/05/30 00:26:07;;;;;;;1.23;1.10;;;8.70;67.10;;;;;;4990363;28;20053;-73
2022/05/30 00:28:33;;;;;;;1.05;0.90;;;8.60;67.10;;;;;;4963958;28;20095;-74
2022/05/30 00:30:59;;;;;;;0.82;0.70;;;8.50;67.20;;;;;;4969799;28;20042;-73
2022/05/30 00:33:24;;;;;;;0.68;0.68;;;8.50;67.20;;;;;;4996042;28;20131;-73
2022/05/30 00:35:50;;;;;;;4.43;1.27;;;8.50;68.10;;;;;;4973617;28;20049;-73
2022/05/30 00:38:15;;;;;;;1.70;0.88;;;8.50;67.40;;;;;;4973276;28;20170;-74
2022/05/30 00:40:41;;;;;;;2.00;0.90;;;8.40;67.50;;;;;;4995524;28;20064;-74
2022/05/30 00:43:27;;;;;;;1.65;0.90;;;8.40;67.50;;;;;;4961988;28;20037;-73
2022/05/30 00:45:54;;;;;;;1.33;1.00;;;8.30;67.90;;;;;;5003427;28;20105;-72
2022/05/30 00:48:23;;;;;;;1.17;1.02;;;8.30;67.80;;;;;;5001319;28;20410;-74
2022/05/30 00:50:50;;;;;;;1.30;1.20;;;8.20;67.90;;;;;;4991775;28;20164;-73
2022/05/30 00:53:16;;;;;;;1.63;0.80;;;8.20;68.00;;;;;;4955456;28;20038;-73
2022/05/30 00:55:43;;;;;;;1.52;0.85;;;8.20;69.00;;;;;;4978089;28;20725;-74
2022/05/30 00:58:09;;;;;;;1.60;1.20;;;8.20;68.20;;;;;;4959681;28;20065;-73
2022/05/30 01:00:35;;;;;;;2.28;0.80;;;8.20;68.30;;;;;;4987324;28;20033;-73
2022/05/30 01:08:30;;;;;;;1.45;0.98;;;8.20;68.30;;;;;;4984769;28;20045;-73
2022/05/30 01:10:56;;;;;;;2.35;0.95;;;8.20;68.30;;;;;;4975783;28;20034;-73
2022/05/30 01:13:23;;;;;;;1.35;0.90;;;8.10;68.30;;;;;;4969264;28;20145;-74
2022/05/30 01:15:49;;;;;;;1.70;0.90;;;8.10;68.30;;;;;;4989548;28;20041;-74
2022/05/30 01:18:21;;;;;;;0.80;0.80;;;8.10;68.30;;;;;;4991091;28;20042;-72
2022/05/30 01:21:05;;;;;;;1.08;0.90;;;8.10;68.40;;;;;;4973225;28;20514;-72
2022/05/30 01:23:43;;;;;;;1.00;0.90;;;8.10;68.70;;;;;;4989858;28;20589;-73
2022/05/30 01:26:27;;;;;;;1.67;1.15;;;8.10;68.70;;;;;;4979401;28;20041;-73
2022/05/30 01:29:00;;;;;;;2.35;1.10;;;8.10;68.60;;;;;;4976269;28;20033;-73
2022/05/30 01:31:25;;;;;;;1.73;0.98;;;8.10;68.50;;;;;;5006438;28;20053;-72
2022/05/30 01:33:51;;;;;;;1.00;0.85;;;8.00;68.40;;;;;;4982087;28;20376;-73
2022/05/30 01:36:21;;;;;;;2.00;0.90;;;7.90;68.40;;;;;;4952207;28;20045;-73
2022/05/30 01:38:46;;;;;;;1.58;1.00;;;7.90;68.70;;;;;;4977922;28;20084;-71
2022/05/30 01:41:12;;;;;;;1.33;0.88;;;7.90;68.70;;;;;;4984345;28;20034;-74
2022/05/30 01:43:37;;;;;;;4.20;1.00;;;7.80;68.80;;;;;;5003072;28;20034;-72
2022/05/30 01:46:07;;;;;;;5.88;1.08;;;7.80;68.80;;;;;;5001099;28;20052;-72
2022/05/30 01:48:32;;;;;;;2.20;0.70;;;7.80;68.90;;;;;;4994684;28;20046;-73
2022/05/30 01:50:59;;;;;;;1.10;1.00;;;7.80;68.90;;;;;;4977558;28;20042;-72
2022/05/30 01:53:26;;;;;;;1.33;1.15;;;7.80;68.90;;;;;;5001331;28;20095;-74
2022/05/30 01:55:51;;;;;;;1.27;0.95;;;7.80;69.90;;;;;;4961359;28;20436;-73
2022/05/30 01:58:17;;;;;;;0.90;0.80;;;7.70;69.00;;;;;;4984396;28;20535;-72
2022/05/30 02:00:42;;;;;;;1.15;0.90;;;7.70;69.10;;;;;;4967917;28;20027;-72
2022/05/30 02:03:08;;;;;;;1.00;0.80;;;7.70;69.20;;;;;;4988541;28;20034;-72
2022/05/30 02:05:33;;;;;;;3.15;0.88;;;7.70;69.20;;;;;;4966008;28;20034;-72
2022/05/30 02:08:01;;;;;;;1.35;0.90;;;7.70;69.20;;;;;;4968287;28;20553;-72
2022/05/30 02:10:27;;;;;;;1.42;1.02;;;7.70;69.20;;;;;;4996868;28;20042;-72
2022/05/30 02:12:53;;;;;;;1.23;0.70;;;7.70;69.30;;;;;;4977536;28;20026;-72
2022/05/30 02:15:19;;;;;;;1.73;0.70;;;7.70;69.50;;;;;;4992129;28;20026;-72
2022/05/30 02:17:44;;;;;;;2.95;0.80;;;7.60;69.40;;;;;;4984476;28;20124;-72
2022/05/30 02:20:10;;;;;;;3.38;1.10;;;7.60;69.50;;;;;;4995424;28;20125;-72
2022/05/30 02:22:36;;;;;;;1.60;0.90;;;7.60;69.70;;;;;;4986625;28;20103;-72
2022/05/30 02:25:01;;;;;;;1.05;0.95;;;7.60;69.70;;;;;;4958018;28;20546;-72
2022/05/30 02:27:27;;;;;;;1.77;1.15;;;7.50;69.70;;;;;;4983198;28;20030;-72
2022/05/30 02:29:53;;;;;;;1.10;0.90;;;7.50;69.80;;;;;;4988543;28;20577;-72
2022/05/30 02:32:18;;;;;;;0.90;0.70;;;7.50;69.80;;;;;;4980103;28;20053;-72
2022/05/30 02:37:28;;;;;;;1.00;0.90;;;7.40;70.10;;;;;;4976386;28;20044;-73
2022/05/30 02:39:54;;;;;;;0.95;0.85;;;7.40;70.20;;;;;;4985945;28;20042;-72
2022/05/30 02:42:19;;;;;;;1.48;1.20;;;7.40;70.20;;;;;;4967709;28;20054;-72
2022/05/30 02:44:45;;;;;;;0.93;0.93;;;7.40;70.10;;;;;;4972682;28;20050;-72
2022/05/30 02:47:10;;;;;;;1.13;1.00;;;7.30;70.00;;;;;;4951328;28;20040;-72
2022/05/30 02:49:36;;;;;;;1.40;0.95;;;7.30;70.20;;;;;;4983003;28;20029;-72
2022/05/30 02:52:02;;;;;;;0.80;0.80;;;7.30;70.30;;;;;;4990431;28;20034;-72
2022/05/30 02:54:27;;;;;;;1.30;0.90;;;7.20;70.30;;;;;;4964198;28;20034;-72
2022/05/30 02:56:55;;;;;;;1.10;1.00;;;7.30;70.50;;;;;;4983790;28;20057;-72
2022/05/30 02:59:21;;;;;;;3.75;1.15;;;7.20;70.40;;;;;;4998581;28;20081;-72
2022/05/30 03:01:46;;;;;;;1.00;0.82;;;7.20;70.40;;;;;;4973570;28;20050;-72
2022/05/30 03:04:12;;;;;;;1.35;0.95;;;7.20;70.40;;;;;;4975298;28;20081;-72
2022/05/30 03:06:37;;;;;;;1.77;1.30;;;7.20;70.50;;;;;;4998689;28;20034;-72
2022/05/30 03:09:03;;;;;;;1.85;1.02;;;7.20;70.50;;;;;;4985817;28;20812;-72
2022/05/30 03:11:29;;;;;;;1.13;0.88;;;7.20;70.60;;;;;;4993158;28;20426;-72
2022/05/30 03:13:55;;;;;;;1.25;1.13;;;7.20;70.60;;;;;;4956989;28;20787;-72
2022/05/30 03:16:20;;;;;;;0.98;0.85;;;7.10;70.60;;;;;;4980912;28;20069;-72
2022/05/30 03:18:46;;;;;;;0.70;0.70;;;7.10;70.70;;;;;;4998763;28;20134;-73
2022/05/30 03:21:11;;;;;;;0.98;0.90;;;7.10;70.70;;;;;;4979536;28;20404;-72
2022/05/30 03:23:37;;;;;;;1.58;0.93;;;7.10;70.80;;;;;;4986354;28;20109;-72
2022/05/30 03:26:03;;;;;;;1.38;1.08;;;7.10;70.90;;;;;;4987460;28;20045;-72
2022/05/30 03:28:31;;;;;;;0.80;0.80;;;7.00;70.80;;;;;;4980673;28;20034;-73
2022/05/30 03:30:57;;;;;;;0.80;0.80;;;7.00;70.90;;;;;;4961084;28;20062;-72
2022/05/30 03:33:22;;;;;;;1.73;1.00;;;6.90;71.00;;;;;;4983610;28;20076;-72
2022/05/30 03:35:48;;;;;;;0.90;0.88;;;6.90;71.10;;;;;;4973526;28;20046;-73
2022/05/30 03:38:13;;;;;;;1.65;1.20;;;6.90;71.20;;;;;;4989776;28;20042;-74
2022/05/30 03:40:39;;;;;;;1.83;1.40;;;6.90;71.40;;;;;;4983924;28;20061;-75
2022/05/30 03:43:09;;;;;;;1.40;1.23;;;6.90;71.40;;;;;;5000879;28;20123;-73
2022/05/30 03:45:39;;;;;;;1.27;1.08;;;6.90;71.50;;;;;;4992936;28;20105;-73
2022/05/30 03:48:05;;;;;;;2.78;1.30;;;6.90;71.50;;;;;;4968688;28;20062;-73
2022/05/30 03:50:31;;;;;;;1.50;1.00;;;6.90;71.40;;;;;;4986340;28;20037;-73
2022/05/30 03:53:04;;;;;;;1.15;0.98;;;6.80;71.50;;;;;;4975096;28;20034;-73
2022/05/30 03:55:31;;;;;;;2.60;1.13;;;6.90;71.80;;;;;;4985402;28;20037;-73
2022/05/30 03:57:56;;;;;;;2.08;1.10;;;6.80;71.80;;;;;;4980199;28;20058;-72
2022/05/30 04:00:22;;;;;;;2.25;1.00;;;6.80;71.80;;;;;;4975275;28;20069;-72
2022/05/30 04:02:47;;;;;;;1.20;1.10;;;6.80;71.90;;;;;;4981541;28;20046;-72
2022/05/30 04:05:15;;;;;;;1.25;1.00;;;6.90;71.90;;;;;;5002442;28;20042;-73
2022/05/30 04:07:40;;;;;;;1.23;1.08;;;6.90;72.00;;;;;;4971711;28;20034;-72
2022/05/30 04:10:06;;;;;;;1.70;1.05;;;6.90;72.00;;;;;;4966408;28;20140;-73
2022/05/30 04:12:32;;;;;;;2.85;0.93;;;6.90;72.10;;;;;;4984891;28;20076;-72
2022/05/30 04:14:59;;;;;;;2.63;1.05;;;6.90;72.10;;;;;;4963340;28;20121;-73
2022/05/30 04:17:24;;;;;;;1.50;1.02;;;6.90;72.10;;;;;;4971948;28;20043;-72
2022/05/30 04:19:50;;;;;;;2.05;0.80;;;7.00;72.20;;;;;;4970958;28;20061;-73
2022/05/30 04:22:16;;;;;;;1.23;1.00;;;7.00;72.20;;;;;;4981467;28;20067;-73
2022/05/30 04:24:42;;;;;;;1.05;0.90;;;7.00;72.30;;;;;;4968418;28;21653;-73
2022/05/30 04:27:07;;;;;;;1.70;1.33;;;7.00;72.30;;;;;;5000565;28;20041;-73
2022/05/30 04:29:33;;;;;;;10.05;1.52;;;7.00;72.40;;;;;;4991389;28;20031;-73
2022/05/30 04:31:59;;;;;;;1.98;1.02;;;7.10;72.40;;;;;;4983417;28;20145;-73
2022/05/30 04:34:25;;;;;;;1.50;1.10;;;7.10;72.50;;;;;;5001917;28;20501;-73
2022/05/30 04:36:51;;;;;;;1.73;1.10;;;7.20;72.60;;;;;;4995531;28;20042;-73
2022/05/30 04:39:16;;;;;;;1.75;1.15;;;7.20;72.70;;;;;;4973611;28;20688;-72
2022/05/30 04:41:42;;;;;;;1.30;1.20;;;7.20;72.70;;;;;;4991642;28;20501;-72
2022/05/30 04:44:07;;;;;;;1.50;1.25;;;7.20;72.70;;;;;;5003066;28;20451;-72
2022/05/30 04:46:33;;;;;;;2.53;1.20;;;7.30;72.80;;;;;;4989588;28;20553;-73
2022/05/30 04:48:59;;;;;;;3.97;2.10;;;7.30;72.80;;;;;;4985278;28;20564;-72
2022/05/30 04:51:24;;;;;;;1.85;1.52;;;7.30;72.90;;;;;;4997799;28;20121;-73
2022/05/30 04:53:50;;;;;;;1.13;1.02;;;7.40;73.00;;;;;;4991972;28;20148;-73
2022/05/30 04:56:17;;;;;;;2.28;1.40;;;7.50;73.20;;;;;;4975891;28;20037;-73
2022/05/30 04:58:43;;;;;;;1.50;1.40;;;7.50;73.20;;;;;;4985929;28;20041;-74
2022/05/30 05:01:10;;;;;;;1.88;1.40;;;7.50;73.30;;;;;;4996477;28;20041;-71
2022/05/30 05:03:37;;;;;;;5.60;1.38;;;7.60;73.40;;;;;;4968958;28;20379;-73
2022/05/30 05:06:10;;;;;;;3.75;1.35;;;7.60;73.50;;;;;;4968852;28;20096;-73
2022/05/30 05:08:59;;;;;;;1.75;1.25;;;7.70;74.10;;;;;;4989837;28;20108;-73
2022/05/30 05:11:29;;;;;;;1.92;1.50;;;7.70;73.90;;;;;;4981603;28;20525;-72
2022/05/30 05:13:55;;;;;;;1.95;1.10;;;7.70;73.60;;;;;;4983646;28;20041;-72
2022/05/30 05:16:22;;;;;;;1.65;1.55;;;7.80;73.50;;;;;;4978019;28;20034;-72
2022/05/30 05:18:48;;;;;;;2.63;1.38;;;7.80;73.60;;;;;;4979480;28;20704;-73
2022/05/30 05:21:24;;;;;;;3.05;1.38;;;7.90;73.60;;;;;;4998192;28;20053;-72
2022/05/30 05:23:50;;;;;;;3.78;2.00;;;8.00;73.80;;;;;;4988753;28;20029;-71
2022/05/30 05:26:16;;;;;;;6.03;2.30;;;8.00;73.50;;;;;;4938047;28;20041;-72
2022/05/30 05:28:42;;;;;;;4.30;2.05;;;8.10;73.60;;;;;;4969014;28;20040;-73
2022/05/30 05:31:08;;;;;;;2.45;2.20;;;8.10;73.60;;;;;;4954015;28;20034;-72
2022/05/30 05:33:34;;;;;;;2.58;2.10;;;8.20;73.50;;;;;;4973502;28;20352;-73
2022/05/30 05:35:59;;;;;;;7.75;3.20;;;8.20;73.40;;;;;;4994460;28;20535;-73
2022/05/30 05:38:25;;;;;;;4.22;3.22;;;8.30;73.50;;;;;;4990642;28;20042;-72
2022/05/30 05:40:52;;;;;;;4.28;3.35;;;8.30;73.50;;;;;;4985262;28;20038;-71
2022/05/30 05:43:18;;;;;;;6.38;3.47;;;8.40;73.50;;;;;;4980940;28;20526;-72
2022/05/30 05:45:44;;;;;;;9.80;6.68;;;8.40;73.30;;;;;;4949539;28;20042;-72
2022/05/30 05:48:10;;;;;;;5.55;4.68;;;8.50;73.30;;;;;;4997899;28;20057;-73
2022/05/30 05:50:42;;;;;;;5.40;3.30;;;8.60;73.50;;;;;;4983395;28;20041;-73
2022/05/30 05:53:08;;;;;;;9.38;3.95;;;8.60;73.40;;;;;;4987158;28;20533;-72
2022/05/30 05:55:34;;;;;;;9.43;3.85;;;8.70;73.30;;;;;;4951233;28;20404;-73
2022/05/30 05:57:59;;;;;;;8.00;2.97;;;8.80;73.40;;;;;;4977243;28;20031;-73
2022/05/30 06:00:25;;;;;;;5.32;3.20;;;8.80;73.30;;;;;;4963471;28;20038;-72
2022/05/30 06:02:50;;;;;;;4.22;2.10;;;8.90;73.30;;;;;;4988177;28;20062;-74
2022/05/30 06:05:16;;;;;;;6.15;2.92;;;9.00;73.30;;;;;;4986823;28;20344;-74
2022/05/30 06:07:42;;;;;;;8.27;3.05;;;9.10;73.20;;;;;;4976488;28;20938;-74
2022/05/30 06:10:10;;;;;;;4.95;2.65;;;9.20;73.20;;;;;;4972498;28;20121;-73
2022/05/30 06:12:42;;;;;;;5.38;2.25;;;9.30;73.10;;;;;;4964424;28;20045;-74
2022/05/30 06:15:10;;;;;;;5.65;3.35;;;9.40;73.10;;;;;;5008514;28;20053;-74
2022/05/30 06:17:39;;;;;;;5.75;4.15;;;9.50;72.90;;;;;;5006345;28;20034;-74
2022/05/30 06:20:05;;;;;;;5.07;2.83;;;9.60;73.00;;;;;;5005579;28;20053;-74
2022/05/30 06:22:31;;;;;;;2.88;2.20;;;9.70;72.90;;;;;;4989781;28;20398;-74
2022/05/30 06:24:56;;;;;;;6.70;2.15;;;9.80;72.70;;;;;;4976185;28;20034;-74
2022/05/30 06:27:22;;;;;;;2.35;1.63;;;9.90;72.50;;;;;;5006421;28;20042;-73
2022/05/30 06:29:47;;;;;;;2.30;1.90;;;10.10;72.40;;;;;;4982111;28;20037;-74
2022/05/30 06:32:13;;;;;;;5.05;1.77;;;10.20;72.20;;;;;;4956036;28;20060;-74
2022/05/30 06:34:39;;;;;;;5.90;1.65;;;10.30;72.10;;;;;;4989192;28;20536;-74
2022/05/30 06:37:04;;;;;;;3.47;2.33;;;10.50;72.00;;;;;;4998474;28;20072;-74
2022/05/30 06:39:30;;;;;;;4.43;1.80;;;10.60;71.90;;;;;;4973739;28;20044;-73
2022/05/30 06:41:55;;;;;;;2.45;1.48;;;10.70;71.70;;;;;;5004265;28;20038;-74
2022/05/30 06:44:21;;;;;;;5.75;1.67;;;10.90;71.50;;;;;;4966390;28;20048;-74
2022/05/30 06:46:47;;;;;;;3.63;1.67;;;11.00;71.40;;;;;;4980683;28;20530;-73
2022/05/30 06:49:12;;;;;;;5.30;1.20;;;11.10;72.00;;;;;;5005641;28;20080;-74
2022/05/30 06:51:38;;;;;;;4.43;1.45;;;11.30;71.00;;;;;;4978903;28;20604;-74
2022/05/30 06:54:04;;;;;;;4.20;1.30;;;11.50;71.00;;;;;;4978861;28;20732;-74
2022/05/30 06:56:32;;;;;;;5.47;1.05;;;11.60;70.80;;;;;;4988936;28;20037;-72
2022/05/30 06:58:58;;;;;;;2.45;1.33;;;11.80;70.50;;;;;;4976894;28;20038;-74
2022/05/30 07:01:26;;;;;;;2.83;1.35;;;11.90;70.10;;;;;;5012128;28;21073;-74
2022/05/30 07:03:51;;;;;;;5.68;1.20;;;12.10;70.00;;;;;;4990234;28;20025;-76
2022/05/30 07:06:19;;;;;;;2.92;0.90;;;12.30;69.80;;;;;;5005042;28;20041;-73
2022/05/30 07:08:46;;;;;;;2.00;1.00;;;12.40;69.60;;;;;;4940146;28;20068;-75
2022/05/30 07:11:13;;;;;;;2.15;1.23;;;12.60;69.20;;;;;;5003706;28;20034;-73
2022/05/30 07:13:39;;;;;;;3.03;1.13;;;12.80;69.00;;;;;;5001088;28;20521;-75
2022/05/30 07:16:04;;;;;;;2.33;1.10;;;13.00;68.70;;;;;;5000170;28;20527;-75
2022/05/30 07:18:30;;;;;;;1.88;0.80;;;13.10;68.20;;;;;;4979377;28;20054;-74
2022/05/30 07:20:57;;;;;;;1.13;1.00;;;13.30;68.00;;;;;;4969374;28;20053;-75
2022/05/30 07:23:23;;;;;;;1.55;1.05;;;13.40;67.70;;;;;;4981552;28;20085;-75
2022/05/30 07:25:49;;;;;;;1.30;0.73;;;13.60;67.40;;;;;;4972638;28;20049;-75
2022/05/30 07:28:14;;;;;;;1.88;0.80;;;13.70;67.00;;;;;;4976027;28;20076;-76
2022/05/30 07:30:40;;;;;;;2.05;0.70;;;13.90;66.70;;;;;;4983869;28;20034;-75
2022/05/30 07:33:06;;;;;;;1.83;0.60;;;14.00;66.40;;;;;;5001363;28;20049;-75
2022/05/30 07:35:31;;;;;;;2.80;0.63;;;14.20;66.90;;;;;;4969145;28;20499;-75
2022/05/30 07:37:57;;;;;;;3.83;0.60;;;14.40;65.80;;;;;;4972064;28;20037;-74
2022/05/30 07:40:22;;;;;;;0.93;0.60;;;14.50;65.50;;;;;;4959404;28;20038;-74
2022/05/30 07:42:48;;;;;;;1.88;0.80;;;14.70;65.10;;;;;;4985415;28;20056;-74
2022/05/30 07:45:14;;;;;;;4.28;0.55;;;14.90;64.70;;;;;;4942964;28;20041;-75
2022/05/30 07:47:39;;;;;;;0.85;0.40;;;15.00;65.10;;;;;;4974162;28;20030;-75
2022/05/30 07:50:06;;;;;;;0.38;0.32;;;15.10;63.90;;;;;;4980574;28;20042;-74
2022/05/30 07:52:32;;;;;;;3.05;0.75;;;15.30;63.70;;;;;;4974749;28;20054;-75
2022/05/30 07:54:57;;;;;;;2.85;0.95;;;15.50;63.50;;;;;;4984356;28;20029;-75
2022/05/30 07:57:50;;;;;;;2.75;0.70;;;15.70;63.20;;;;;;4984839;28;20084;-74
2022/05/30 08:00:10;;;;;;;2.47;0.77;;;15.90;62.70;;;;;;4976216;28;20045;-74
2022/05/30 08:02:37;;;;;;;4.40;1.02;;;16.10;62.10;;;;;;4988136;28;20088;-75
2022/05/30 08:05:04;;;;;;;1.38;0.60;;;16.10;61.50;;;;;;5000851;28;20116;-74
2022/05/30 08:07:29;;;;;;;1.67;0.60;;;16.20;61.20;;;;;;4987057;28;20037;-74
2022/05/30 08:09:55;;;;;;;2.33;0.60;;;16.40;60.80;;;;;;4983305;28;20053;-75
2022/05/30 08:12:21;;;;;;;2.20;0.73;;;16.50;60.40;;;;;;4984427;28;20034;-75
2022/05/30 08:14:46;;;;;;;4.68;0.60;;;16.60;60.00;;;;;;4965158;28;20729;-75
2022/05/30 08:17:12;;;;;;;3.30;0.50;;;16.80;59.90;;;;;;5000564;28;20041;-74
2022/05/30 08:19:40;;;;;;;2.78;0.60;;;17.00;59.40;;;;;;4998843;28;20088;-75
2022/05/30 08:22:07;;;;;;;1.33;0.60;;;17.20;58.90;;;;;;4972185;28;20109;-75
2022/05/30 08:24:37;;;;;;;0.77;0.40;;;17.40;58.40;;;;;;4983964;28;20737;-74
2022/05/30 08:27:03;;;;;;;1.48;0.93;;;17.50;57.90;;;;;;4985245;28;20084;-75
2022/05/30 08:29:29;;;;;;;1.88;0.65;;;17.60;57.60;;;;;;4983198;28;20061;-75
2022/05/30 08:31:55;;;;;;;2.10;0.40;;;17.70;57.20;;;;;;4974318;28;20030;-76
2022/05/30 08:34:20;;;;;;;1.95;0.60;;;17.90;57.00;;;;;;4980772;28;20069;-76
2022/05/30 08:36:46;;;;;;;2.55;0.60;;;18.20;56.80;;;;;;4989206;28;20042;-75
2022/05/30 08:41:57;;;;;;;2.08;0.47;;;18.60;55.90;;;;;;4999678;28;20568;-74
2022/05/30 08:44:22;;;;;;;2.28;0.47;;;18.80;55.50;;;;;;4983894;28;20091;-75
2022/05/30 08:46:57;;;;;;;2.95;0.40;;;19.10;55.20;;;;;;4957825;28;20037;-75
2022/05/30 08:49:34;;;;;;;2.35;0.47;;;19.30;55.00;;;;;;4983206;28;20045;-75
2022/05/30 08:52:13;;;;;;;1.38;1.00;;;19.50;54.20;;;;;;4971340;28;20110;-75
2022/05/30 08:54:41;;;;;;;0.88;0.38;;;19.80;53.60;;;;;;4967717;28;20121;-75
2022/05/30 08:57:13;;;;;;;2.72;0.60;;;20.00;53.50;;;;;;4998361;28;20115;-75
2022/05/30 08:59:51;;;;;;;2.70;0.80;;;20.30;53.00;;;;;;4975230;28;20041;-74
2022/05/30 09:02:31;;;;;;;1.83;0.60;;;20.40;51.80;;;;;;4985764;28;20038;-76
2022/05/30 09:05:06;;;;;;;1.30;0.43;;;20.50;51.30;;;;;;4966190;28;20041;-75
2022/05/30 09:07:36;;;;;;;1.98;0.55;;;20.70;50.90;;;;;;4987203;28;20095;-76
2022/05/30 09:10:05;;;;;;;0.85;0.40;;;20.90;51.30;;;;;;4970795;28;20434;-76
2022/05/30 09:12:41;;;;;;;0.65;0.25;;;20.90;50.90;;;;;;4996179;28;20442;-75
2022/05/30 09:15:11;;;;;;;2.70;0.40;;;21.00;49.80;;;;;;4958393;28;20653;-75
2022/05/30 09:17:45;;;;;;;0.70;0.50;;;21.00;50.30;;;;;;4954226;28;20033;-76
2022/05/30 09:20:14;;;;;;;1.67;0.50;;;21.20;49.90;;;;;;4953948;28;20061;-75
2022/05/30 09:22:40;;;;;;;2.03;0.70;;;21.40;49.90;;;;;;4989669;28;20682;-75
2022/05/30 09:27:50;;;;;;;1.17;0.40;;;21.90;48.90;;;;;;4969271;28;20560;-75
2022/05/30 09:30:20;;;;;;;1.13;0.35;;;22.10;48.70;;;;;;4971263;28;20033;-75
2022/05/30 09:33:08;;;;;;;1.23;0.40;;;22.20;48.10;;;;;;4952182;28;20038;-76
2022/05/30 09:35:34;;;;;;;1.13;0.20;;;22.20;46.90;;;;;;4981624;28;20121;-75
2022/05/30 09:38:13;;;;;;;0.30;0.30;;;22.20;47.70;;;;;;4985680;28;20130;-77
2022/05/30 09:40:41;;;;;;;1.33;0.20;;;22.30;46.90;;;;;;4961498;28;20033;-76
2022/05/30 09:43:07;;;;;;;0.28;0.10;;;22.30;47.20;;;;;;4964821;28;20069;-75
2022/05/30 09:45:33;;;;;;;0.73;0.28;;;22.30;46.70;;;;;;4985845;28;20767;-76
2022/05/30 09:47:59;;;;;;;0.55;0.20;;;22.00;46.30;;;;;;4972719;28;20030;-75
2022/05/30 09:50:25;;;;;;;0.65;0.25;;;21.90;46.00;;;;;;4974892;28;20030;-76
2022/05/30 09:52:50;;;;;;;0.95;0.40;;;21.80;46.20;;;;;;4980728;28;20407;-75
2022/05/30 09:55:20;;;;;;;1.30;0.30;;;21.80;46.00;;;;;;5007636;28;20033;-75
2022/05/30 09:57:46;;;;;;;1.17;0.30;;;21.70;45.50;;;;;;4993262;28;20030;-77
2022/05/30 10:00:29;;;;;;;0.30;0.25;;;21.70;45.80;;;;;;4977363;28;20812;-75
2022/05/30 10:03:00;;;;;;;0.75;0.47;;;21.80;45.70;;;;;;4992089;28;20041;-75
2022/05/30 10:05:28;;;;;;;2.20;0.38;;;21.90;45.70;;;;;;4976593;28;20121;-76
2022/05/30 10:08:00;;;;;;;0.80;0.20;;;22.00;45.60;;;;;;5002853;28;20498;-75
2022/05/30 10:10:30;;;;;;;0.70;0.30;;;22.00;45.40;;;;;;4957375;28;20128;-75
2022/05/30 10:12:57;;;;;;;2.05;0.50;;;22.00;45.10;;;;;;4987743;28;20042;-74
2022/05/30 10:15:23;;;;;;;0.77;0.50;;;21.90;45.20;;;;;;4973650;28;20044;-74
2022/05/30 10:17:49;;;;;;;0.60;0.25;;;21.80;45.10;;;;;;5001374;28;20587;-75
2022/05/30 10:20:20;;;;;;;0.47;0.30;;;21.70;45.10;;;;;;5000750;28;20053;-74
2022/05/30 10:28:54;;;;;;;2.15;0.40;;;21.40;44.50;;;;;;4988454;28;20786;-74
2022/05/30 10:31:35;;;;;;;0.63;0.30;;;21.60;45.20;;;;;;4974069;28;20133;-75
2022/05/30 10:34:06;;;;;;;1.55;0.30;;;21.70;44.10;;;;;;4985912;28;20502;-75
2022/05/30 10:36:44;;;;;;;1.55;0.30;;;21.80;44.30;;;;;;5005807;28;20050;-76
2022/05/30 10:39:17;;;;;;;0.98;0.40;;;21.80;44.50;;;;;;4990451;28;20411;-75
2022/05/30 10:41:45;;;;;;;1.15;0.35;;;21.80;44.30;;;;;;5001030;28;22175;-75
2022/05/30 10:44:23;;;;;;;2.63;0.40;;;21.90;44.20;;;;;;5002500;28;20046;-75
2022/05/30 10:47:16;;;;;;;0.63;0.32;;;21.90;43.90;;;;;;5002345;28;20041;-75
2022/05/30 10:50:21;;;;;;;0.50;0.30;;;21.90;43.90;;;;;;5002058;28;20041;-75
2022/05/30 10:52:57;;;;;;;1.08;0.22;;;21.90;44.00;;;;;;4960122;28;20057;-74
2022/05/30 10:55:31;;;;;;;0.50;0.25;;;21.90;43.70;;;;;;4954905;28;20034;-75
2022/05/30 10:58:21;;;;;;;1.15;0.40;;;21.70;43.90;;;;;;4968790;28;20038;-75
2022/05/30 11:00:51;;;;;;;2.77;0.57;;;21.70;44.20;;;;;;4977689;28;20044;-75
2022/05/30 11:03:38;;;;;;;1.33;0.30;;;21.60;44.20;;;;;;4966488;28;20412;-75
2022/05/30 11:06:09;;;;;;;1.55;0.35;;;21.50;43.90;;;;;;4993681;28;20802;-74
2022/05/30 11:08:59;;;;;;;2.42;0.47;;;21.40;44.30;;;;;;4994675;28;20064;-75
2022/05/30 11:11:39;;;;;;;0.98;0.30;;;21.40;44.00;;;;;;4969498;28;20038;-75
2022/05/30 11:14:32;;;;;;;0.52;0.50;;;21.50;44.20;;;;;;4963501;28;20100;-75
2022/05/30 11:17:19;;;;;;;1.08;0.30;;;21.50;44.30;;;;;;4975915;28;20038;-75
2022/05/30 11:20:05;;;;;;;1.92;0.50;;;21.50;44.10;;;;;;4980755;28;20026;-75
2022/05/30 11:22:35;;;;;;;1.00;0.20;;;21.50;44.00;;;;;;4951335;28;20035;-75
2022/05/30 11:25:01;;;;;;;0.70;0.40;;;21.60;44.30;;;;;;4956857;28;20041;-75
2022/05/30 11:27:37;;;;;;;1.80;0.60;;;21.60;44.20;;;;;;4949499;28;20690;-75
2022/05/30 11:30:27;;;;;;;2.38;0.38;;;21.70;43.70;;;;;;4953344;28;20037;-75
2022/05/30 11:33:25;;;;;;;1.02;0.35;;;21.70;43.80;;;;;;4967607;28;20058;-75
2022/05/30 11:36:19;;;;;;;3.28;0.47;;;21.70;43.50;;;;;;4980127;28;20091;-75
2022/05/30 11:38:55;;;;;;;0.57;0.40;;;21.80;43.20;;;;;;4983902;28;20157;-75
2022/05/30 11:41:26;;;;;;;0.93;0.35;;;21.80;43.90;;;;;;4967627;28;20042;-75
2022/05/30 11:44:10;;;;;;;1.13;0.40;;;22.00;43.80;;;;;;4981902;28;20034;-76
2022/05/30 11:46:56;;;;;;;1.25;0.30;;;22.20;43.00;;;;;;4976225;28;20034;-75
2022/05/30 11:49:32;;;;;;;1.80;0.40;;;22.30;42.80;;;;;;4985065;28;20088;-75
2022/05/30 11:52:16;;;;;;;1.40;0.38;;;22.30;42.90;;;;;;4959615;28;20404;-73
2022/05/30 11:54:57;;;;;;;0.55;0.30;;;22.30;42.90;;;;;;4966553;28;20030;-74
2022/05/30 11:57:25;;;;;;;;;;;22.50;42.50;;;;;;4983077;28;20113;-74
2022/05/30 12:00:19;;;;;;;1.02;0.35;;;22.70;43.00;;;;;;4962075;28;19945;-75
2022/05/30 12:02:53;;;;;;;0.55;0.30;;;22.80;42.70;;;;;;4955295;28;20057;-75
2022/05/30 12:05:24;;;;;;;3.40;0.30;;;23.10;42.90;;;;;;4979614;28;20354;-74
2022/05/30 12:08:20;;;;;;;0.28;0.22;;;23.30;42.80;;;;;;4964037;28;20034;-75
2022/05/30 12:10:58;;;;;;;0.63;0.50;;;23.30;42.20;;;;;;4972302;28;20129;-75
2022/05/30 12:13:41;;;;;;;0.40;0.38;;;23.40;42.10;;;;;;4957913;28;20038;-73
2022/05/30 12:16:12;;;;;;;0.55;0.20;;;23.70;42.30;;;;;;4965804;28;20045;-74
2022/05/30 12:24:14;;;;;;;3.47;0.60;;;24.00;41.50;;;;;;4943371;28;20077;-75
2022/05/30 12:26:46;;;;;;;0.85;0.43;;;24.00;41.40;;;;;;4977396;28;20034;-75
2022/05/30 12:29:32;;;;;;;1.55;0.50;;;24.10;41.10;;;;;;4965911;28;20065;-75
2022/05/30 12:32:09;;;;;;;2.70;0.63;;;24.30;40.40;;;;;;4940332;28;22721;-75
2022/05/30 12:37:45;;;;;;;16.75;3.30;;;24.50;39.80;;;;;;4966633;28;20125;-75
2022/05/30 12:40:12;;;;;;;6.40;0.93;;;24.40;39.90;;;;;;4928708;28;20034;-75
2022/05/30 12:42:42;;;;;;;6.13;1.05;;;24.30;40.20;;;;;;4944039;28;20062;-75
2022/05/30 12:45:17;;;;;;;1.17;0.60;;;24.10;40.10;;;;;;4953219;28;20077;-75
2022/05/30 12:47:51;;;;;;;11.85;3.47;;;24.10;39.60;;;;;;4959048;28;20038;-75
2022/05/30 12:50:32;;;;;;;12.60;4.15;;;24.10;39.70;;;;;;4973586;28;20096;-75
2022/05/30 12:52:59;;;;;;;4.22;1.05;;;24.10;39.90;;;;;;4955438;28;20041;-76
2022/05/30 12:55:39;;;;;;;1.90;1.05;;;24.20;40.20;;;;;;4931520;28;20062;-74
2022/05/30 12:58:05;;;;;;;1.73;0.88;;;24.40;40.20;;;;;;4944077;28;20061;-74
2022/05/30 13:00:36;;;;;;;0.73;0.20;;;24.40;39.70;;;;;;4904122;28;20039;-74
2022/05/30 13:03:22;;;;;;;0.40;0.30;;;24.40;38.70;;;;;;4969110;28;20022;-74
2022/05/30 13:06:11;;;;;;;1.65;0.50;;;24.20;39.00;;;;;;4977403;28;20030;-74
2022/05/30 13:08:56;;;;;;;1.33;0.30;;;24.20;38.60;;;;;;4970071;28;20042;-76
2022/05/30 13:11:33;;;;;;;9.30;2.30;;;24.30;39.20;;;;;;4987059;28;20053;-74
2022/05/30 13:14:11;;;;;;;0.80;0.43;;;24.40;38.30;;;;;;5005388;28;20043;-74
2022/05/30 13:16:39;;;;;;;5.82;0.40;;;24.40;38.10;;;;;;5000081;28;20037;-74
2022/05/30 13:19:06;;;;;;;0.75;0.47;;;24.50;38.60;;;;;;4968759;28;20434;-74
2022/05/30 13:21:32;;;;;;;2.20;1.10;;;24.60;38.60;;;;;;4979793;28;20034;-77
2022/05/30 13:23:59;;;;;;;0.50;0.40;;;24.60;38.20;;;;;;4987821;28;20089;-75
2022/05/30 13:26:25;;;;;;;1.20;0.50;;;24.70;38.00;;;;;;4966670;28;20069;-74
2022/05/30 13:28:50;;;;;;;2.47;1.08;;;24.60;37.60;;;;;;4997153;28;20069;-73
2022/05/30 13:31:16;;;;;;;2.58;0.93;;;24.40;37.80;;;;;;4991029;28;20069;-74
2022/05/30 13:33:51;;;;;;;11.32;3.42;;;24.10;38.00;;;;;;4984473;28;20088;-74